Time;durP1;ratioP1;P1;durP2;ratioP2;P2;SDS_P1;SDS_P2;PMS_P1;PMS_P2;Temp;Humidity;BMP_temperature;BMP_pressure;BME280_temperature;BME280_humidity;BME280_pressure;Samples;Min_cycle;Max_cycle;Signal;HPM_P1;HPM_P2
2023/05/12 00:01:38;;;;;;;54.45;29.30;;;;;;;11.48;100.00;101333.69;10488493;28;20119;-81
2023/05/12 00:06:38;;;;;;;49.05;25.85;;;;;;;11.48;100.00;101336.31;10498740;28;20115;-81
2023/05/12 00:11:39;;;;;;;38.78;23.27;;;;;;;11.50;100.00;101321.56;10530019;28;20024;-80
2023/05/12 00:16:39;;;;;;;37.50;23.23;;;;;;;11.49;100.00;101320.66;10511474;28;20123;-81
2023/05/12 00:21:40;;;;;;;34.60;22.80;;;;;;;11.46;100.00;101321.41;10511279;28;20060;-80
2023/05/12 00:26:40;;;;;;;33.40;21.63;;;;;;;11.45;100.00;101319.59;10510353;28;20070;-81
2023/05/12 00:31:41;;;;;;;33.05;20.42;;;;;;;11.49;100.00;101311.88;10530680;28;22197;-80
2023/05/12 00:36:41;;;;;;;29.50;18.83;;;;;;;11.49;100.00;101304.03;10509070;28;20042;-81
2023/05/12 00:41:49;;;;;;;30.85;19.70;;;;;;;11.52;100.00;101304.19;10526511;28;20060;-81
2023/05/12 00:46:49;;;;;;;27.13;18.98;;;;;;;11.47;100.00;101311.81;10529824;28;20484;-81
2023/05/12 00:51:50;;;;;;;31.25;17.83;;;;;;;11.42;100.00;101302.81;10485195;28;20040;-81
2023/05/12 00:56:50;;;;;;;32.47;18.35;;;;;;;11.38;100.00;101298.25;10498618;28;20064;-80
2023/05/12 01:01:51;;;;;;;27.23;19.15;;;;;;;11.33;100.00;101299.75;10510539;28;20040;-79
2023/05/12 01:07:04;;;;;;;35.63;18.83;;;;;;;11.31;100.00;101299.63;10509734;28;20450;-79
2023/05/12 01:12:05;;;;;;;32.40;19.63;;;;;;;11.21;100.00;101289.50;10525929;28;20081;-80
2023/05/12 01:17:09;;;;;;;33.63;20.83;;;;;;;11.18;100.00;101286.72;10525668;28;20036;-80
2023/05/12 01:22:09;;;;;;;31.42;18.25;;;;;;;11.15;100.00;101280.50;10511190;28;20146;-80
2023/05/12 01:27:10;;;;;;;31.98;19.20;;;;;;;11.09;100.00;101281.94;10521405;28;20637;-80
2023/05/12 01:32:11;;;;;;;31.02;19.02;;;;;;;11.06;100.00;101276.53;10508303;28;20123;-81
2023/05/12 01:37:11;;;;;;;30.80;19.52;;;;;;;11.00;100.00;101267.53;10527147;28;20387;-80
2023/05/12 01:42:12;;;;;;;32.40;20.30;;;;;;;10.97;100.00;101271.69;10524373;28;20469;-79
2023/05/12 01:47:14;;;;;;;29.75;19.73;;;;;;;10.94;100.00;101271.53;10525975;28;20040;-80
2023/05/12 01:52:14;;;;;;;;;;;;;;;10.92;100.00;101267.94;10525275;28;20043;-79
2023/05/12 01:57:15;;;;;;;25.60;17.67;;;;;;;10.84;100.00;101267.53;10527125;28;20378;-80
2023/05/12 02:02:15;;;;;;;26.30;15.90;;;;;;;10.79;100.00;101269.91;10523456;28;20354;-80
2023/05/12 02:07:16;;;;;;;31.20;17.48;;;;;;;10.74;100.00;101266.13;10507588;28;20060;-83
2023/05/12 02:12:16;;;;;;;20.95;13.35;;;;;;;10.68;100.00;101268.44;10525746;28;20063;-80
2023/05/12 02:17:17;;;;;;;22.90;12.20;;;;;;;10.59;100.00;101268.84;10522712;28;20115;-82
2023/05/12 02:22:17;;;;;;;23.20;12.50;;;;;;;10.53;100.00;101266.78;10507238;28;20123;-82
2023/05/12 02:27:18;;;;;;;22.65;14.55;;;;;;;10.46;100.00;101254.19;10526580;28;20484;-82
2023/05/12 02:32:18;;;;;;;21.25;13.43;;;;;;;10.43;100.00;101249.69;10524042;28;20391;-82
2023/05/12 02:37:19;;;;;;;25.00;15.90;;;;;;;10.36;100.00;101242.28;10525514;28;20067;-81
2023/05/12 02:42:19;;;;;;;24.20;14.07;;;;;;;10.32;100.00;101249.88;10524091;28;20056;-81
2023/05/12 02:47:20;;;;;;;18.33;12.25;;;;;;;10.24;100.00;101241.63;10488911;28;20132;-81
2023/05/12 02:52:21;;;;;;;26.40;14.73;;;;;;;10.20;100.00;101237.91;10500202;28;20123;-82
2023/05/12 02:57:21;;;;;;;16.58;10.95;;;;;;;10.20;100.00;101226.56;10523746;28;20127;-82
2023/05/12 03:02:21;;;;;;;15.18;8.68;;;;;;;10.14;100.00;101221.91;10524523;28;20052;-81
2023/05/12 03:07:22;;;;;;;13.32;8.10;;;;;;;10.08;100.00;101211.09;10526581;28;20498;-81
2023/05/12 03:12:22;;;;;;;16.35;8.00;;;;;;;9.97;100.00;101200.94;10514576;28;20039;-80
2023/05/12 03:17:23;;;;;;;17.67;10.27;;;;;;;9.96;100.00;101193.91;10515155;28;20050;-80
2023/05/12 03:22:24;;;;;;;17.77;10.35;;;;;;;9.95;100.00;101192.09;10515404;28;20039;-80
2023/05/12 03:27:24;;;;;;;18.98;10.15;;;;;;;9.93;100.00;101183.28;10531324;28;20040;-80
2023/05/12 03:32:25;;;;;;;17.17;10.32;;;;;;;9.95;100.00;101175.53;10529843;28;20127;-81
2023/05/12 03:37:26;;;;;;;18.02;9.95;;;;;;;9.93;100.00;101185.91;10513257;28;20107;-81
2023/05/12 03:42:27;;;;;;;19.70;11.43;;;;;;;9.92;100.00;101173.63;10533415;28;20059;-81
2023/05/12 03:47:27;;;;;;;20.90;10.77;;;;;;;10.03;100.00;101174.25;10513752;28;20399;-81
2023/05/12 03:52:28;;;;;;;19.98;12.20;;;;;;;10.05;100.00;101169.06;10532037;28;20055;-81
2023/05/12 03:57:28;;;;;;;21.20;13.02;;;;;;;10.04;100.00;101168.19;10529133;28;20065;-80
2023/05/12 04:02:29;;;;;;;19.85;11.95;;;;;;;10.15;100.00;101155.69;10530604;28;20055;-79
2023/05/12 04:07:29;;;;;;;28.70;14.88;;;;;;;10.29;100.00;101153.81;10528105;28;20044;-80
2023/05/12 04:12:30;;;;;;;32.70;18.00;;;;;;;10.30;100.00;101166.09;10530274;28;20148;-79
2023/05/12 04:17:31;;;;;;;42.72;19.52;;;;;;;10.38;100.00;101162.16;10521457;28;20067;-80
2023/05/12 04:22:31;;;;;;;44.38;22.98;;;;;;;10.50;100.00;101168.91;10506370;28;20048;-80
2023/05/12 04:27:31;;;;;;;50.53;27.55;;;;;;;10.51;100.00;101161.13;10518007;28;20078;-80
2023/05/12 04:32:32;;;;;;;49.90;26.08;;;;;;;10.60;100.00;101162.41;10521462;28;20128;-79
2023/05/12 04:37:33;;;;;;;54.20;27.48;;;;;;;10.55;100.00;101168.31;10499410;28;20425;-78
2023/05/12 04:42:34;;;;;;;52.45;27.92;;;;;;;10.61;100.00;101167.75;10529513;28;20046;-79
2023/05/12 04:47:34;;;;;;;46.30;23.95;;;;;;;10.55;100.00;101172.66;10528434;28;20040;-79
2023/05/12 04:52:35;;;;;;;41.65;24.08;;;;;;;10.56;100.00;101180.56;10525711;28;20135;-79
2023/05/12 04:57:35;;;;;;;43.60;21.20;;;;;;;10.54;100.00;101190.06;10510262;28;20055;-79
2023/05/12 05:02:36;;;;;;;60.58;28.00;;;;;;;10.54;100.00;101197.03;10518439;28;20155;-77
2023/05/12 05:07:36;;;;;;;53.25;27.25;;;;;;;10.62;100.00;101200.97;10511578;28;20115;-78
2023/05/12 05:12:37;;;;;;;52.42;26.10;;;;;;;10.64;100.00;101212.41;10519588;28;20123;-78
2023/05/12 05:17:37;;;;;;;58.78;30.92;;;;;;;10.76;100.00;101221.72;10477305;28;20115;-80
2023/05/12 05:22:38;;;;;;;67.05;33.60;;;;;;;10.85;100.00;101224.81;10517061;28;20056;-80
2023/05/12 05:27:39;;;;;;;74.28;35.08;;;;;;;10.97;100.00;101243.78;10524862;28;20476;-79
2023/05/12 05:32:40;;;;;;;68.97;32.72;;;;;;;11.11;100.00;101241.00;10526236;28;20039;-78
2023/05/12 05:37:40;;;;;;;59.65;29.65;;;;;;;11.22;100.00;101241.53;10507279;28;20048;-78
2023/05/12 05:42:41;;;;;;;51.63;22.70;;;;;;;11.28;100.00;101252.31;10527472;28;20123;-79
2023/05/12 05:47:41;;;;;;;51.08;22.88;;;;;;;11.24;100.00;101264.38;10527336;28;20801;-79
2023/05/12 05:52:42;;;;;;;42.80;20.42;;;;;;;11.33;100.00;101276.16;10525630;28;20052;-78
2023/05/12 05:57:42;;;;;;;43.05;17.65;;;;;;;11.38;100.00;101279.91;10525115;28;20058;-80
2023/05/12 06:02:43;;;;;;;36.22;19.98;;;;;;;11.51;100.00;101290.19;10490953;28;20181;-79
2023/05/12 06:07:43;;;;;;;28.60;16.92;;;;;;;11.74;100.00;101296.56;10508547;28;20449;-80
2023/05/12 06:12:44;;;;;;;28.58;15.20;;;;;;;11.80;100.00;101303.88;10524421;28;20040;-78
2023/05/12 06:17:44;;;;;;;21.95;12.15;;;;;;;11.98;100.00;101300.34;10525655;28;20079;-78
2023/05/12 06:22:45;;;;;;;21.98;11.70;;;;;;;12.24;100.00;101311.22;10521581;28;20502;-78
2023/05/12 06:27:45;;;;;;;20.40;12.27;;;;;;;12.53;100.00;101316.97;10524386;28;20388;-78
2023/05/12 06:32:46;;;;;;;14.05;10.23;;;;;;;12.67;100.00;101321.13;10525324;28;20064;-79
2023/05/12 06:37:49;;;;;;;18.45;11.50;;;;;;;12.75;100.00;101319.75;10525919;28;20123;-78
2023/05/12 06:42:50;;;;;;;15.38;10.32;;;;;;;12.89;100.00;101316.88;10530096;28;20386;-78
2023/05/12 06:47:50;;;;;;;14.05;9.70;;;;;;;12.88;100.00;101318.56;10537905;28;20059;-77
2023/05/12 06:52:51;;;;;;;13.35;8.07;;;;;;;13.04;100.00;101316.63;10521866;28;20032;-77
2023/05/12 06:57:54;;;;;;;12.25;7.43;;;;;;;13.40;100.00;101324.34;10539336;28;20052;-81
2023/05/12 07:02:55;;;;;;;10.73;5.50;;;;;;;13.56;100.00;101315.44;10536704;28;20143;-80
2023/05/12 07:07:55;;;;;;;12.73;4.95;;;;;;;13.94;100.00;101315.22;10540460;28;20038;-75
2023/05/12 07:12:56;;;;;;;7.07;3.60;;;;;;;14.63;100.00;101314.44;10539173;28;20531;-76
2023/05/12 07:17:56;;;;;;;5.57;3.85;;;;;;;15.23;100.00;101286.78;10536589;28;20056;-81
2023/05/12 07:23:03;;;;;;;5.65;3.13;;;;;;;15.67;100.00;101298.78;10519790;28;20119;-78
2023/05/12 07:28:03;;;;;;;5.35;3.25;;;;;;;15.63;100.00;101302.19;10536843;28;20398;-78
2023/05/12 07:33:04;;;;;;;7.10;3.30;;;;;;;15.59;100.00;101306.47;10538521;28;20028;-79
2023/05/12 07:38:05;;;;;;;11.10;3.83;;;;;;;15.28;100.00;101323.88;10526937;28;20044;-82
2023/05/12 07:43:05;;;;;;;5.55;4.05;;;;;;;15.62;100.00;101330.31;10518992;28;20028;-82
2023/05/12 07:48:07;;;;;;;5.68;2.60;;;;;;;18.12;100.00;101310.25;10507057;28;20043;-84
2023/05/12 07:53:08;;;;;;;3.95;2.63;;;;;;;18.20;100.00;101324.56;10509671;28;20036;-89
2023/05/12 07:58:08;;;;;;;2.88;1.67;;;;;;;17.32;100.00;101329.38;10488409;28;20067;-85
2023/05/12 08:03:09;;;;;;;4.75;3.45;;;;;;;16.73;100.00;101324.16;10530968;28;20059;-85
2023/05/12 08:08:15;;;;;;;5.38;2.83;;;;;;;16.20;100.00;101340.13;10525833;28;20123;-87
2023/05/12 08:13:15;;;;;;;5.95;2.42;;;;;;;16.23;100.00;101343.78;10511421;28;20377;-86
2023/05/12 08:18:16;;;;;;;3.78;3.20;;;;;;;15.95;100.00;101340.25;10528623;28;20067;-86
2023/05/12 08:23:16;;;;;;;5.00;2.25;;;;;;;15.59;100.00;101348.69;10530194;28;20066;-87
2023/05/12 08:28:17;;;;;;;4.18;2.63;;;;;;;15.16;100.00;101365.59;10529702;28;20071;-90
2023/05/12 08:33:17;;;;;;;4.90;3.55;;;;;;;15.21;100.00;101357.00;10532651;28;20100;-90
2023/05/12 08:38:18;;;;;;;4.78;2.83;;;;;;;14.93;100.00;101373.56;10533485;28;20472;-85
2023/05/12 08:43:24;;;;;;;4.43;2.67;;;;;;;15.24;100.00;101365.03;10508456;28;20047;-85
2023/05/12 08:48:28;;;;;;;5.43;2.95;;;;;;;16.06;100.00;101366.09;10517958;28;20040;-87
2023/05/12 08:53:29;;;;;;;2.85;2.00;;;;;;;19.21;100.00;101374.47;10530753;28;20032;-91
2023/05/12 08:58:29;;;;;;;3.00;1.75;;;;;;;18.34;100.00;101368.16;10517543;28;20028;-85
2023/05/12 09:03:30;;;;;;;4.55;2.45;;;;;;;19.82;100.00;101373.84;10497603;28;20580;-87
2023/05/12 09:08:32;;;;;;;2.63;1.87;;;;;;;20.12;100.00;101375.25;10502426;28;20047;-80
2023/05/12 09:13:36;;;;;;;;;;;;;;;19.12;100.00;101390.19;10497354;28;20135;-81
2023/05/12 09:18:54;;;;;;;3.60;1.92;;;;;;;19.14;100.00;101377.88;10524298;28;20393;-84
2023/05/12 09:23:58;;;;;;;3.30;1.60;;;;;;;18.26;100.00;101382.06;10526855;28;20039;-82
2023/05/12 09:29:05;;;;;;;3.70;2.05;;;;;;;17.80;100.00;101389.75;10518622;28;20043;-80
2023/05/12 09:34:07;;;;;;;4.53;2.40;;;;;;;17.58;100.00;101384.75;10491792;28;20545;-86
2023/05/12 09:39:08;;;;;;;2.72;1.80;;;;;;;18.13;100.00;101387.06;10475081;28;20126;-80
2023/05/12 09:44:09;;;;;;;3.58;2.03;;;;;;;17.74;100.00;101387.81;10513728;28;20047;-85
2023/05/12 09:49:10;;;;;;;3.38;1.83;;;;;;;17.72;100.00;101385.13;10530043;28;20032;-88
2023/05/12 09:54:11;;;;;;;3.28;1.92;;;;;;;19.51;100.00;101391.84;10512732;28;20036;-86
2023/05/12 09:59:12;;;;;;;4.13;1.85;;;;;;;19.07;100.00;101395.44;10529787;28;20052;-82
2023/05/12 10:04:12;;;;;;;2.75;1.08;;;;;;;21.58;100.00;101397.63;10510942;28;20522;-83
2023/05/12 10:09:22;;;;;;;3.87;1.40;;;;;;;23.08;91.17;101395.22;10527229;28;20074;-82
2023/05/12 10:14:23;;;;;;;3.67;1.73;;;;;;;24.71;77.38;101395.38;10470637;28;20697;-83
2023/05/12 10:19:24;;;;;;;4.33;1.50;;;;;;;23.32;79.69;101399.75;10450030;28;20039;-89
2023/05/12 10:24:28;;;;;;;7.30;3.30;;;;;;;21.25;94.30;101394.59;10467351;28;20127;-84
2023/05/12 10:29:28;;;;;;;2.30;1.70;;;;;;;20.30;94.17;101406.56;10472400;28;20122;-88
2023/05/12 10:34:31;;;;;;;3.40;1.67;;;;;;;19.83;100.00;101418.13;10523907;28;20050;-88
2023/05/12 10:39:32;;;;;;;2.95;2.08;;;;;;;20.95;98.11;101411.94;10507549;28;20055;-85
2023/05/12 10:44:34;;;;;;;4.00;1.53;;;;;;;19.74;96.25;101420.59;10524329;28;20047;-84
2023/05/12 10:49:38;;;;;;;;;;;;;;;19.42;100.00;101431.50;10523445;28;20048;-88
2023/05/12 10:54:43;;;;;;;9.60;2.58;;;;;;;19.64;100.00;101427.50;10522278;28;19956;-90
2023/05/12 10:59:50;;;;;;;3.08;1.67;;;;;;;20.47;98.86;101414.78;10508102;28;20032;-87
2023/05/12 11:04:54;;;;;;;3.42;1.40;;;;;;;20.42;95.59;101411.16;10524641;28;20032;-85
2023/05/12 11:09:56;;;;;;;2.08;1.50;;;;;;;21.98;91.64;101411.38;10507340;28;20166;-87
2023/05/12 11:15:00;;;;;;;2.45;1.70;;;;;;;21.22;90.22;101410.50;10503783;28;20040;-88
2023/05/12 11:20:01;;;;;;;3.72;1.65;;;;;;;21.39;84.57;101421.38;10502957;28;20085;-87
2023/05/12 11:25:09;;;;;;;4.83;2.17;;;;;;;20.90;83.67;101424.28;10521355;28;20158;-81
2023/05/12 11:30:10;;;;;;;3.80;2.03;;;;;;;20.20;87.20;101431.19;10512528;28;20368;-91
2023/05/12 11:35:16;;;;;;;3.53;2.17;;;;;;;19.50;94.80;101432.53;10517001;28;20119;-84
2023/05/12 11:40:21;;;;;;;4.20;2.33;;;;;;;19.11;96.31;101431.78;10531415;28;20032;-89
2023/05/12 11:45:32;;;;;;;7.78;4.05;;;;;;;21.85;92.59;101431.66;10515225;28;20396;-86
2023/05/12 11:50:33;;;;;;;8.80;3.67;;;;;;;21.48;81.51;101436.56;10488280;28;20057;-86
2023/05/12 11:55:33;;;;;;;6.70;2.43;;;;;;;21.40;85.15;101449.78;10505970;28;20040;-87
2023/05/12 12:00:34;;;;;;;2.90;1.83;;;;;;;20.51;86.59;101445.88;10529762;28;20115;-82
2023/05/12 12:05:34;;;;;;;3.23;2.30;;;;;;;20.59;83.63;101451.31;10511037;28;20044;-87
2023/05/12 12:10:35;;;;;;;6.83;2.13;;;;;;;20.97;80.24;101453.69;10529553;28;20104;-88
2023/05/12 12:15:35;;;;;;;1.97;1.73;;;;;;;20.45;83.09;101464.38;10529291;28;20121;-89
2023/05/12 12:20:36;;;;;;;4.23;2.77;;;;;;;21.20;100.00;101454.84;10506348;28;20451;-88
2023/05/12 12:25:36;;;;;;;7.00;4.03;;;;;;;22.77;89.88;101469.78;10528783;28;20122;-86
2023/05/12 12:30:37;;;;;;;6.60;4.10;;;;;;;23.07;90.98;101465.50;10511822;28;20036;-85
2023/05/12 12:35:38;;;;;;;4.90;3.20;;;;;;;21.73;100.00;101475.06;10530510;28;20187;-90
2023/05/12 12:40:38;;;;;;;3.73;2.87;;;;;;;20.73;100.00;101477.22;10527715;28;20131;-89
2023/05/12 12:45:39;;;;;;;7.50;3.37;;;;;;;20.79;100.00;101470.25;10526642;28;20071;-86
2023/05/12 12:50:39;;;;;;;4.80;3.53;;;;;;;20.21;100.00;101483.47;10530245;28;20040;-88
2023/05/12 12:55:40;;;;;;;5.13;3.23;;;;;;;19.78;100.00;101475.56;10511323;28;20431;-90
2023/05/12 13:00:40;;;;;;;9.20;3.47;;;;;;;20.22;100.00;101477.28;10511787;28;20116;-90
2023/05/12 13:05:41;;;;;;;5.20;2.90;;;;;;;21.13;100.00;101484.03;10510276;28;20111;-87
2023/05/12 13:10:42;;;;;;;4.73;3.40;;;;;;;21.81;98.59;101483.13;10527414;28;20442;-89
2023/05/12 13:15:42;;;;;;;9.20;4.03;;;;;;;20.94;100.00;101476.66;10526285;28;20044;-86
2023/05/12 13:20:43;;;;;;;4.73;3.47;;;;;;;19.85;100.00;101476.59;10510240;28;20134;-87
2023/05/12 13:25:45;;;;;;;10.40;3.10;;;;;;;18.92;100.00;101480.81;10526438;28;20060;-88
2023/05/12 13:30:45;;;;;;;;;;;;;;;18.25;100.00;101475.66;10510392;28;20055;-89
2023/05/12 13:35:45;;;;;;;4.38;3.20;;;;;;;17.97;100.00;101478.47;10526562;28;19923;-87
2023/05/12 13:40:46;;;;;;;5.20;3.70;;;;;;;18.20;100.00;101473.78;10527119;28;20079;-88
2023/05/12 13:45:46;;;;;;;4.68;2.90;;;;;;;18.16;100.00;101482.50;10526174;28;20070;-88
2023/05/12 13:50:47;;;;;;;4.32;3.45;;;;;;;17.84;100.00;101485.16;10506521;28;20035;-87
2023/05/12 13:55:47;;;;;;;3.67;2.92;;;;;;;17.47;100.00;101476.19;10503573;28;20073;-85
2023/05/12 14:00:48;;;;;;;5.63;3.15;;;;;;;17.32;100.00;101471.34;10525127;28;20116;-86
2023/05/12 14:05:49;;;;;;;7.22;4.32;;;;;;;17.41;100.00;101474.25;10524275;28;20066;-85
2023/05/12 14:10:49;;;;;;;5.63;3.72;;;;;;;17.44;100.00;101474.34;10523307;28;20056;-85
2023/05/12 14:15:50;;;;;;;6.85;3.25;;;;;;;17.50;100.00;101484.19;10520869;28;20106;-83
2023/05/12 14:20:51;;;;;;;3.85;2.90;;;;;;;17.73;100.00;101492.81;10520638;28;20438;-89
2023/05/12 14:25:51;;;;;;;5.55;3.50;;;;;;;18.25;100.00;101465.06;10506261;28;20440;-86
2023/05/12 14:30:52;;;;;;;11.50;4.23;;;;;;;19.07;100.00;101475.00;10486875;28;20097;-86
2023/05/12 14:35:52;;;;;;;5.53;3.55;;;;;;;19.56;100.00;101476.91;10509479;28;20047;-86
2023/05/12 14:40:53;;;;;;;5.53;4.00;;;;;;;19.98;100.00;101480.38;10521969;28;20480;-82
2023/05/12 14:45:53;;;;;;;5.77;4.00;;;;;;;20.31;100.00;101480.09;10524345;28;20125;-84
2023/05/12 14:50:54;;;;;;;6.67;4.80;;;;;;;20.64;100.00;101475.31;10506835;28;20124;-88
2023/05/12 14:55:55;;;;;;;5.07;3.87;;;;;;;20.77;100.00;101477.28;10479371;28;20036;-86
2023/05/12 15:00:56;;;;;;;12.80;4.00;;;;;;;20.65;100.00;101475.34;10480839;28;20033;-88
2023/05/12 15:05:56;;;;;;;6.50;4.07;;;;;;;20.57;100.00;101476.06;10495422;28;20117;-86
2023/05/12 15:10:57;;;;;;;6.07;4.07;;;;;;;20.27;100.00;101483.59;10488705;28;20136;-84
2023/05/12 15:15:57;;;;;;;5.80;3.57;;;;;;;19.98;100.00;101486.63;10490480;28;20557;-86
2023/05/12 15:20:58;;;;;;;4.10;3.47;;;;;;;19.70;100.00;101483.41;10511105;28;20040;-86
2023/05/12 15:25:58;;;;;;;8.13;3.90;;;;;;;19.48;100.00;101488.28;10525094;28;20040;-84
2023/05/12 15:30:59;;;;;;;9.20;4.30;;;;;;;19.49;100.00;101492.72;10509352;28;20073;-86
2023/05/12 15:35:59;;;;;;;4.80;3.77;;;;;;;19.77;100.00;101481.72;10512996;28;20127;-84
2023/05/12 15:41:00;;;;;;;4.03;3.43;;;;;;;20.28;100.00;101488.03;10531252;28;20170;-86
2023/05/12 15:46:03;;;;;;;6.73;3.17;;;;;;;20.47;100.00;101494.53;10511636;28;20063;-83
2023/05/12 15:51:03;;;;;;;6.35;3.95;;;;;;;20.35;100.00;101489.00;10532129;28;20066;-87
2023/05/12 15:56:05;;;;;;;6.70;4.43;;;;;;;20.13;100.00;101491.28;10493251;28;20496;-86
2023/05/12 16:01:05;;;;;;;4.87;3.43;;;;;;;19.84;100.00;101488.97;10500281;28;20111;-85
2023/05/12 16:06:06;;;;;;;4.20;3.47;;;;;;;19.61;100.00;101494.72;10528491;28;20063;-85
2023/05/12 16:11:07;;;;;;;6.40;3.53;;;;;;;18.99;100.00;101493.38;10493426;28;20047;-84
2023/05/12 16:16:07;;;;;;;5.97;2.87;;;;;;;18.81;100.00;101507.09;10527044;28;20606;-84
2023/05/12 16:21:08;;;;;;;7.75;3.28;;;;;;;18.74;100.00;101511.34;10527419;28;20042;-82
2023/05/12 16:26:08;;;;;;;7.28;3.10;;;;;;;18.71;100.00;101519.22;10528239;28;20127;-83
2023/05/12 16:31:09;;;;;;;5.37;3.03;;;;;;;18.66;100.00;101517.31;10511514;28;20032;-85
2023/05/12 16:36:10;;;;;;;5.93;3.25;;;;;;;18.46;100.00;101515.06;10493825;28;20036;-83
2023/05/12 16:41:10;;;;;;;9.98;3.13;;;;;;;18.08;100.00;101517.63;10512035;28;20059;-84
2023/05/12 16:46:11;;;;;;;4.35;3.10;;;;;;;17.95;100.00;101518.97;10528298;28;20095;-84
2023/05/12 16:51:11;;;;;;;4.50;2.80;;;;;;;17.90;100.00;101525.03;10528052;28;20071;-83
2023/05/12 16:56:12;;;;;;;3.60;2.65;;;;;;;17.79;100.00;101523.84;10529788;28;20035;-82
2023/05/12 17:01:12;;;;;;;6.07;3.97;;;;;;;17.69;100.00;101535.03;10528373;28;20447;-83
2023/05/12 17:06:12;;;;;;;4.70;3.17;;;;;;;17.44;100.00;101531.66;10528219;28;20101;-83
2023/05/12 17:11:13;;;;;;;6.50;4.15;;;;;;;17.00;100.00;101535.63;10527106;28;20070;-82
2023/05/12 17:16:14;;;;;;;5.13;4.10;;;;;;;16.55;100.00;101533.22;10525335;28;20036;-82
2023/05/12 17:21:15;;;;;;;6.80;4.60;;;;;;;16.28;100.00;101542.91;10526982;28;20032;-82
2023/05/12 17:26:15;;;;;;;7.05;3.70;;;;;;;16.12;100.00;101541.47;10527814;28;20123;-83
2023/05/12 17:31:16;;;;;;;5.55;3.90;;;;;;;15.93;100.00;101549.56;10509502;28;20399;-81
2023/05/12 17:36:17;;;;;;;5.68;3.15;;;;;;;15.75;100.00;101555.91;10528358;28;20063;-83
2023/05/12 17:41:18;;;;;;;9.57;5.77;;;;;;;15.53;100.00;101564.78;10508621;28;20032;-83
2023/05/12 17:46:18;;;;;;;3.45;3.15;;;;;;;15.34;100.00;101548.25;10510055;28;20088;-83
2023/05/12 17:51:19;;;;;;;7.63;5.80;;;;;;;15.20;100.00;101546.81;10509386;28;20130;-83
2023/05/12 17:56:19;;;;;;;6.03;4.65;;;;;;;15.09;100.00;101547.28;10503789;28;20501;-83
2023/05/12 18:01:20;;;;;;;7.35;4.35;;;;;;;14.91;100.00;101554.44;10526330;28;20060;-83
2023/05/12 18:06:20;;;;;;;9.68;5.85;;;;;;;14.71;100.00;101556.25;10526167;28;20064;-82
2023/05/12 18:11:21;;;;;;;5.78;5.07;;;;;;;14.53;100.00;101560.78;10524907;28;20049;-81
2023/05/12 18:16:22;;;;;;;7.93;5.22;;;;;;;14.37;100.00;101559.22;10509050;28;20075;-83
2023/05/12 18:21:22;;;;;;;7.15;4.32;;;;;;;14.27;100.00;101571.91;10525800;28;20131;-83
2023/05/12 18:26:23;;;;;;;7.00;5.00;;;;;;;14.16;100.00;101564.44;10517386;28;20456;-83
2023/05/12 18:31:25;;;;;;;7.95;5.20;;;;;;;14.08;100.00;101568.47;10484734;28;20045;-83
2023/05/12 18:36:26;;;;;;;5.57;4.30;;;;;;;13.99;100.00;101570.69;10476637;28;20064;-83
2023/05/12 18:41:26;;;;;;;9.02;5.47;;;;;;;13.91;100.00;101579.16;10523078;28;20039;-83
2023/05/12 18:46:27;;;;;;;7.22;5.20;;;;;;;13.87;100.00;101593.00;10525983;28;20062;-83
2023/05/12 18:51:28;;;;;;;8.15;5.72;;;;;;;13.76;100.00;101594.22;10523175;28;20052;-83
2023/05/12 18:56:28;;;;;;;8.75;4.90;;;;;;;13.65;100.00;101588.44;10526355;28;20391;-83
2023/05/12 19:01:32;;;;;;;8.75;7.03;;;;;;;13.54;100.00;101608.09;10525554;28;20146;-82
2023/05/12 19:06:41;;;;;;;11.05;5.25;;;;;;;13.44;100.00;101612.91;10523729;28;20078;-83
2023/05/12 19:11:43;;;;;;;7.78;4.75;;;;;;;13.27;100.00;101637.44;10523525;28;20420;-83
2023/05/12 19:16:45;;;;;;;8.20;6.05;;;;;;;13.10;100.00;101642.78;10523165;28;20086;-82
2023/05/12 19:21:46;;;;;;;;;;;;;;;12.96;100.00;101641.19;10524430;28;20036;-82
2023/05/12 19:26:46;;;;;;;9.07;6.18;;;;;;;12.75;100.00;101660.28;10522935;28;19970;-83
2023/05/12 19:31:47;;;;;;;10.70;7.97;;;;;;;12.52;100.00;101661.75;10505349;28;20029;-83
2023/05/12 19:36:47;;;;;;;12.85;8.40;;;;;;;12.39;100.00;101668.03;10505164;28;20132;-82
2023/05/12 19:41:50;;;;;;;9.00;6.82;;;;;;;12.19;100.00;101675.75;10523549;28;20123;-82
2023/05/12 19:46:51;;;;;;;7.68;6.88;;;;;;;12.05;100.00;101688.16;10524120;28;20036;-83
2023/05/12 19:51:52;;;;;;;7.65;6.28;;;;;;;11.96;100.00;101687.59;10526445;28;20139;-82
2023/05/12 19:56:52;;;;;;;10.32;8.65;;;;;;;11.89;100.00;101691.59;10531009;28;20115;-83
2023/05/12 20:01:53;;;;;;;10.43;7.90;;;;;;;11.88;100.00;101695.03;10525697;28;20052;-83
2023/05/12 20:06:53;;;;;;;15.40;9.45;;;;;;;12.04;100.00;101708.22;10501255;28;20378;-82
2023/05/12 20:11:54;;;;;;;14.77;6.97;;;;;;;12.09;100.00;101712.81;10531933;28;20536;-82
2023/05/12 20:16:55;;;;;;;9.25;5.90;;;;;;;12.04;100.00;101721.34;10529148;28;20490;-81
2023/05/12 20:21:55;;;;;;;10.93;6.78;;;;;;;11.89;100.00;101710.88;10510517;28;20091;-82
2023/05/12 20:26:56;;;;;;;13.95;7.15;;;;;;;11.79;100.00;101708.56;10529255;28;20539;-82
2023/05/12 20:31:56;;;;;;;10.88;7.45;;;;;;;11.71;100.00;101722.94;10530080;28;20189;-82
2023/05/12 20:36:57;;;;;;;9.45;6.80;;;;;;;11.59;100.00;101725.75;10529203;28;20071;-85
2023/05/12 20:41:58;;;;;;;19.85;12.52;;;;;;;11.56;100.00;101733.44;10512123;28;20068;-84
2023/05/12 20:46:59;;;;;;;10.35;7.57;;;;;;;11.44;100.00;101737.16;10529984;28;20062;-81
2023/05/12 20:52:00;;;;;;;11.93;8.13;;;;;;;11.35;100.00;101747.13;10526936;28;20046;-82
2023/05/12 20:57:00;;;;;;;12.90;7.20;;;;;;;11.25;100.00;101752.63;10512236;28;20436;-82
2023/05/12 21:02:01;;;;;;;10.15;7.18;;;;;;;11.15;100.00;101749.47;10527270;28;20082;-83
2023/05/12 21:07:01;;;;;;;11.23;7.35;;;;;;;11.07;100.00;101749.84;10519182;28;20040;-86
2023/05/12 21:12:02;;;;;;;13.90;7.53;;;;;;;11.02;100.00;101757.41;10520867;28;20466;-81
2023/05/12 21:17:03;;;;;;;10.98;9.38;;;;;;;10.94;100.00;101764.81;10509513;28;20077;-85
2023/05/12 21:22:04;;;;;;;9.15;7.95;;;;;;;10.79;100.00;101766.50;10490076;28;20039;-84
2023/05/12 21:27:05;;;;;;;12.97;10.67;;;;;;;10.71;100.00;101771.25;10502719;28;20476;-85
2023/05/12 21:32:06;;;;;;;10.93;8.40;;;;;;;10.66;100.00;101773.59;10504534;28;20373;-84
2023/05/12 21:37:07;;;;;;;13.02;8.02;;;;;;;10.60;100.00;101773.22;10522928;28;20036;-85
2023/05/12 21:42:07;;;;;;;13.60;8.70;;;;;;;10.49;100.00;101771.66;10495490;28;20522;-85
2023/05/12 21:47:08;;;;;;;12.98;8.48;;;;;;;10.44;100.00;101776.59;10503863;28;20119;-84
2023/05/12 21:52:08;;;;;;;16.83;9.55;;;;;;;10.31;100.00;101785.34;10510236;28;20124;-84
2023/05/12 21:57:08;;;;;;;11.63;9.32;;;;;;;10.03;100.00;101782.66;10498362;28;20040;-84
2023/05/12 22:02:09;;;;;;;12.30;10.20;;;;;;;9.74;100.00;101785.22;10498241;28;20124;-84
2023/05/12 22:07:09;;;;;;;16.30;11.50;;;;;;;9.56;100.00;101792.72;10507907;28;20040;-85
2023/05/12 22:12:16;;;;;;;17.00;13.57;;;;;;;9.48;100.00;101796.53;10505650;28;20342;-85
2023/05/12 22:17:17;;;;;;;15.27;10.60;;;;;;;9.53;100.00;101797.75;10506178;28;20040;-83
2023/05/12 22:22:17;;;;;;;19.92;14.13;;;;;;;9.52;100.00;101811.63;10488317;28;20060;-84
2023/05/12 22:27:21;;;;;;;17.42;13.13;;;;;;;9.42;100.00;101812.72;10504909;28;20036;-83
2023/05/12 22:32:22;;;;;;;16.98;12.40;;;;;;;9.20;100.00;101807.72;10499627;28;20047;-83
2023/05/12 22:37:23;;;;;;;21.67;12.88;;;;;;;9.08;100.00;101811.31;10498046;28;20143;-83